Time;durP1;ratioP1;P1;durP2;ratioP2;P2;SDS_P1;SDS_P2;PMS_P1;PMS_P2;Temp;Humidity;BMP_temperature;BMP_pressure;BME280_temperature;BME280_humidity;BME280_pressure;Samples;Min_cycle;Max_cycle;Signal;HPM_P1;HPM_P2
2023/08/06 00:01:44;;;;;;;;;;;;;;;17.60;44.09;99619.28;5096011;28;1160;-60
2023/08/06 00:04:10;;;;;;;;;;;;;;;17.50;44.33;99605.75;5096137;28;1184;-60
2023/08/06 00:06:35;;;;;;;;;;;;;;;17.47;44.29;99600.88;5091532;28;1229;-60
2023/08/06 00:09:01;;;;;;;;;;;;;;;17.52;44.02;99601.56;5088167;28;1175;-60
2023/08/06 00:11:26;;;;;;;;;;;;;;;17.47;44.19;99593.44;5077212;28;1123;-61
2023/08/06 00:13:52;;;;;;;;;;;;;;;17.44;44.47;99586.59;5075900;28;1109;-60
2023/08/06 00:16:18;;;;;;;;;;;;;;;17.52;44.11;99578.78;5076325;28;1975;-61
2023/08/06 00:18:43;;;;;;;;;;;;;;;17.55;44.10;99569.91;5088120;28;1123;-60
2023/08/06 00:21:09;;;;;;;;;;;;;;;17.55;44.17;99578.97;5090670;28;1124;-60
2023/08/06 00:23:34;;;;;;;;;;;;;;;17.54;43.96;99574.56;5075913;28;1121;-60
2023/08/06 00:26:00;;;;;;;;;;;;;;;17.50;44.04;99578.25;5094301;28;1010;-61
2023/08/06 00:28:25;;;;;;;;;;;;;;;17.47;44.11;99574.19;5089226;28;1050;-60
2023/08/06 00:30:54;;;;;;;;;;;;;;;17.39;44.39;99578.50;5084855;28;1055;-60
2023/08/06 00:33:20;;;;;;;;;;;;;;;17.43;44.29;99573.19;5075086;28;1209;-60
2023/08/06 00:35:46;;;;;;;;;;;;;;;17.44;44.29;99567.38;5081026;28;1975;-59
2023/08/06 00:38:13;;;;;;;;;;;;;;;17.56;44.10;99568.78;5092347;28;1119;-60
2023/08/06 00:40:38;;;;;;;;;;;;;;;17.50;44.19;99572.75;5081320;28;1193;-59
2023/08/06 00:43:04;;;;;;;;;;;;;;;17.43;44.31;99568.50;5092188;28;1209;-60
2023/08/06 00:45:29;;;;;;;;;;;;;;;17.47;43.92;99578.88;5078466;28;1209;-59
2023/08/06 00:47:56;;;;;;;;;;;;;;;17.45;44.13;99574.50;5092026;28;1110;-60
2023/08/06 00:50:22;;;;;;;;;;;;;;;17.46;43.88;99569.84;5081544;28;1110;-60
2023/08/06 00:52:49;;;;;;;;;;;;;;;17.50;43.97;99567.25;5100242;28;1142;-60
2023/08/06 00:55:14;;;;;;;;;;;;;;;17.38;43.98;99565.06;5076002;28;1042;-59
2023/08/06 00:57:40;;;;;;;;;;;;;;;17.52;43.75;99565.03;5085977;28;1909;-59
2023/08/06 01:00:07;;;;;;;;;;;;;;;17.40;43.90;99568.31;5080760;28;1166;-60
2023/08/06 01:02:33;;;;;;;;;;;;;;;17.34;44.30;99562.09;5079457;28;1055;-59
2023/08/06 01:04:58;;;;;;;;;;;;;;;17.45;44.05;99571.75;5080155;28;1106;-59
2023/08/06 01:07:27;;;;;;;;;;;;;;;17.43;43.84;99567.69;5087537;28;1201;-59
2023/08/06 01:10:10;;;;;;;;;;;;;;;17.38;43.95;99565.88;5087545;28;991;-59
2023/08/06 01:12:50;;;;;;;;;;;;;;;17.40;43.83;99558.16;5061440;28;1119;-59
2023/08/06 01:15:19;;;;;;;;;;;;;;;17.43;43.84;99552.03;5061667;28;1561;-60
2023/08/06 01:17:45;;;;;;;;;;;;;;;18.19;45.22;99546.94;5044954;28;1917;-60
2023/08/06 01:20:11;;;;;;;;;;;;;;;17.74;45.55;99543.06;5079379;28;1019;-60
2023/08/06 01:22:37;;;;;;;;;;;;;;;17.72;45.22;99539.81;5096322;28;1210;-59
2023/08/06 01:25:02;;;;;;;;;;;;;;;17.60;44.98;99526.63;5098953;28;889;-59
2023/08/06 01:27:33;;;;;;;;;;;;;;;17.67;44.40;99517.94;5095341;28;1070;-59
2023/08/06 01:30:04;;;;;;;;;;;;;;;17.52;44.72;99524.59;5072162;28;1047;-58
2023/08/06 01:32:29;;;;;;;;;;;;;;;17.56;44.55;99511.06;5094029;28;1058;-58
2023/08/06 01:34:55;;;;;;;;;;;;;;;17.51;44.24;99513.94;5060944;28;1304;-61
2023/08/06 01:37:21;;;;;;;;;;;;;;;17.56;44.04;99500.06;5096632;28;1968;-61
2023/08/06 01:39:46;;;;;;;;;;;;;;;17.53;44.00;99497.94;5080105;28;1314;-62
2023/08/06 01:42:12;;;;;;;;;;;;;;;17.53;44.04;99487.75;5094627;28;1137;-61
2023/08/06 01:44:39;;;;;;;;;;;;;;;17.56;43.90;99486.34;5078681;28;1055;-61
2023/08/06 01:47:05;;;;;;;;;;;;;;;17.53;43.84;99486.94;5092456;28;1273;-60
2023/08/06 01:49:32;;;;;;;;;;;;;;;17.51;43.78;99489.19;5060677;28;1150;-61
2023/08/06 01:51:57;;;;;;;;;;;;;;;17.51;44.04;99484.50;5092361;28;1138;-60
2023/08/06 01:54:23;;;;;;;;;;;;;;;17.50;44.07;99487.56;5090590;28;1059;-61
2023/08/06 01:56:48;;;;;;;;;;;;;;;17.48;44.00;99470.59;5075597;28;1913;-61
2023/08/06 01:59:14;;;;;;;;;;;;;;;18.31;45.26;99489.41;5070227;28;1341;-61
2023/08/06 02:01:40;;;;;;;;;;;;;;;17.87;45.83;99488.31;5060581;28;1170;-61
2023/08/06 02:04:07;;;;;;;;;;;;;;;17.71;45.32;99485.13;5078663;28;1055;-61
2023/08/06 02:06:33;;;;;;;;;;;;;;;17.76;44.93;99483.06;5082987;28;1019;-62
2023/08/06 02:08:58;;;;;;;;;;;;;;;17.60;45.09;99473.59;5087551;28;1094;-61
2023/08/06 02:11:24;;;;;;;;;;;;;;;17.63;44.72;99472.97;5060428;28;1442;-60
2023/08/06 02:13:50;;;;;;;;;;;;;;;17.67;44.56;99470.38;5078426;28;893;-60
2023/08/06 02:16:18;;;;;;;;;;;;;;;17.64;44.19;99469.06;5096500;28;1905;-60
2023/08/06 02:18:43;;;;;;;;;;;;;;;17.58;44.26;99459.34;5098422;28;1030;-60
2023/08/06 02:21:09;;;;;;;;;;;;;;;17.64;44.06;99452.56;5084981;28;1141;-60
2023/08/06 02:23:34;;;;;;;;;;;;;;;17.45;44.14;99442.59;5097968;28;1037;-61
2023/08/06 02:26:00;;;;;;;;;;;;;;;17.58;44.14;99449.16;5079928;28;1124;-60
2023/08/06 02:28:27;;;;;;;;;;;;;;;17.57;43.88;99436.53;5078269;28;1106;-60
2023/08/06 02:30:52;;;;;;;;;;;;;;;17.55;44.23;99438.78;5096258;28;1004;-60
2023/08/06 02:33:18;;;;;;;;;;;;;;;17.45;44.29;99428.03;5098582;28;1069;-60
2023/08/06 02:35:43;;;;;;;;;;;;;;;17.45;43.95;99434.34;5061948;28;1960;-60
2023/08/06 02:38:09;;;;;;;;;;;;;;;17.54;43.92;99444.59;5077557;28;868;-60
2023/08/06 02:40:35;;;;;;;;;;;;;;;17.56;43.67;99439.59;5073320;28;1112;-60
2023/08/06 02:43:00;;;;;;;;;;;;;;;17.58;43.78;99437.34;5067494;28;1150;-60
2023/08/06 02:45:26;;;;;;;;;;;;;;;17.54;43.91;99441.84;5066191;28;1313;-60
2023/08/06 02:47:51;;;;;;;;;;;;;;;17.53;43.95;99448.47;5086809;28;1173;-61
2023/08/06 02:50:17;;;;;;;;;;;;;;;17.47;43.97;99453.25;5058718;28;2022;-60
2023/08/06 02:52:42;;;;;;;;;;;;;;;17.46;44.05;99459.91;5077729;28;1078;-60
2023/08/06 02:55:09;;;;;;;;;;;;;;;17.48;44.06;99462.34;5072689;28;1246;-60
2023/08/06 02:57:39;;;;;;;;;;;;;;;17.42;44.01;99459.72;5072740;28;1988;-60
2023/08/06 03:00:05;;;;;;;;;;;;;;;17.47;43.85;99460.72;5064573;28;1242;-61
2023/08/06 03:02:30;;;;;;;;;;;;;;;17.46;43.82;99473.66;5063406;28;1537;-60
2023/08/06 03:05:07;;;;;;;;;;;;;;;17.42;43.81;99478.13;5072449;28;1556;-59
2023/08/06 03:07:37;;;;;;;;;;;;;;;17.40;43.82;99475.72;5059523;28;1202;-59
2023/08/06 03:10:10;;;;;;;;;;;;;;;17.36;44.06;99477.44;5067103;28;1155;-59
2023/08/06 03:12:36;;;;;;;;;;;;;;;17.50;43.82;99487.56;5066067;28;1527;-60
2023/08/06 03:15:03;;;;;;;;;;;;;;;17.44;43.71;99476.69;5059225;28;1317;-53
2023/08/06 03:17:29;;;;;;;;;;;;;;;17.42;43.94;99489.94;5094750;28;1882;-54
2023/08/06 03:19:54;;;;;;;;;;;;;;;17.39;43.90;99478.75;5078816;28;1490;-51
2023/08/06 03:22:20;;;;;;;;;;;;;;;17.45;43.43;99478.31;5083460;28;1158;-55
2023/08/06 03:24:46;;;;;;;;;;;;;;;17.41;43.48;99488.31;5077691;28;1396;-55
2023/08/06 03:27:12;;;;;;;;;;;;;;;17.42;43.54;99489.13;5075366;28;1235;-56
2023/08/06 03:29:40;;;;;;;;;;;;;;;17.84;44.12;99488.94;5073244;28;1240;-55
2023/08/06 03:32:06;;;;;;;;;;;;;;;17.83;45.35;99485.38;5058904;28;1106;-55
2023/08/06 03:34:32;;;;;;;;;;;;;;;17.66;45.26;99483.31;5072261;28;1315;-55
2023/08/06 03:36:57;;;;;;;;;;;;;;;17.55;45.08;99481.94;5058640;28;1972;-55
2023/08/06 03:39:23;;;;;;;;;;;;;;;17.65;44.43;99489.94;5077719;28;1435;-53
2023/08/06 03:41:48;;;;;;;;;;;;;;;17.48;44.67;99492.56;5078312;28;1252;-55
2023/08/06 03:44:15;;;;;;;;;;;;;;;17.52;44.44;99493.56;5078536;28;1126;-54
2023/08/06 03:46:41;;;;;;;;;;;;;;;17.52;44.40;99496.31;5071661;28;1269;-56
2023/08/06 03:49:08;;;;;;;;;;;;;;;17.46;44.30;99490.13;5077888;28;1312;-55
2023/08/06 03:51:33;;;;;;;;;;;;;;;17.47;43.87;99478.00;5078453;28;1637;-57
2023/08/06 03:54:01;;;;;;;;;;;;;;;17.47;44.01;99471.69;5094389;28;1055;-56
2023/08/06 03:56:26;;;;;;;;;;;;;;;17.45;43.80;99472.00;5077202;28;1905;-59
2023/08/06 03:58:52;;;;;;;;;;;;;;;17.40;43.90;99470.22;5096349;28;1071;-58
2023/08/06 04:01:17;;;;;;;;;;;;;;;17.43;43.96;99466.00;5095113;28;1086;-58
2023/08/06 04:03:45;;;;;;;;;;;;;;;17.41;43.77;99463.56;5078428;28;1201;-57
2023/08/06 04:06:11;;;;;;;;;;;;;;;17.42;43.95;99470.69;5078257;28;1138;-56
2023/08/06 04:08:36;;;;;;;;;;;;;;;17.41;44.01;99454.53;5078480;28;1437;-50
2023/08/06 04:11:02;;;;;;;;;;;;;;;17.45;43.73;99466.53;5096232;28;1189;-55
2023/08/06 04:13:27;;;;;;;;;;;;;;;17.44;43.95;99462.13;5093973;28;1077;-61
2023/08/06 04:15:54;;;;;;;;;;;;;;;17.42;43.73;99456.97;5077703;28;1984;-61
2023/08/06 04:18:20;;;;;;;;;;;;;;;17.40;43.84;99464.72;5077777;28;1217;-62
2023/08/06 04:20:49;;;;;;;;;;;;;;;17.42;43.65;99456.97;5077770;28;1132;-64
2023/08/06 04:23:15;;;;;;;;;;;;;;;17.49;43.88;99458.44;5096118;28;1012;-63
2023/08/06 04:25:40;;;;;;;;;;;;;;;17.45;43.79;99461.03;5077540;28;1197;-64
2023/08/06 04:28:06;;;;;;;;;;;;;;;17.34;44.27;99459.66;5050526;28;1122;-62
2023/08/06 04:30:32;;;;;;;;;;;;;;;17.42;43.81;99461.66;5095331;28;2736;-62
2023/08/06 04:32:58;;;;;;;;;;;;;;;17.38;44.02;99458.69;5077661;28;1196;-62
2023/08/06 04:35:24;;;;;;;;;;;;;;;17.34;44.36;99459.66;5077565;28;1526;-63
2023/08/06 04:37:51;;;;;;;;;;;;;;;17.38;44.25;99455.94;5093981;28;1980;-61
2023/08/06 04:40:17;;;;;;;;;;;;;;;17.32;44.44;99457.22;5077764;28;1299;-62
2023/08/06 04:42:43;;;;;;;;;;;;;;;17.37;44.14;99448.81;5077700;28;1166;-62
2023/08/06 04:45:08;;;;;;;;;;;;;;;17.42;44.14;99440.47;5095866;28;1193;-62
2023/08/06 04:47:34;;;;;;;;;;;;;;;18.01;43.90;99439.56;5082642;28;988;-61
2023/08/06 04:50:00;;;;;;;;;;;;;;;18.57;43.59;99433.66;5086827;28;1058;-61
2023/08/06 04:52:28;;;;;;;;;;;;;;;18.32;44.88;99433.25;5081907;28;1091;-60
2023/08/06 04:54:54;;;;;;;;;;;;;;;18.22;45.50;99422.53;5095341;28;1114;-60
2023/08/06 04:57:20;;;;;;;;;;;;;;;18.09;46.01;99418.72;5095785;28;1906;-63
2023/08/06 04:59:46;;;;;;;;;;;;;;;17.97;46.52;99421.28;5085140;28;2328;-61
2023/08/06 05:02:11;;;;;;;;;;;;;;;17.94;46.92;99417.22;5094894;28;1050;-62
2023/08/06 05:04:37;;;;;;;;;;;;;;;17.92;47.27;99408.47;5094966;28;1534;-63
2023/08/06 05:07:03;;;;;;;;;;;;;;;17.89;47.55;99409.06;5095235;28;1017;-63
2023/08/06 05:09:28;;;;;;;;;;;;;;;17.85;47.91;99408.06;5095134;28;1132;-62
2023/08/06 05:11:54;;;;;;;;;;;;;;;17.86;48.02;99420.69;5095554;28;1002;-61
2023/08/06 05:14:19;;;;;;;;;;;;;;;17.84;48.33;99412.78;5098618;28;1200;-62
2023/08/06 05:16:45;;;;;;;;;;;;;;;17.80;48.67;99417.28;5099299;28;1914;-62
2023/08/06 05:19:10;;;;;;;;;;;;;;;17.72;49.11;99415.28;5098810;28;1229;-61
2023/08/06 05:21:36;;;;;;;;;;;;;;;17.73;49.35;99408.66;5098891;28;1063;-61
2023/08/06 05:24:01;;;;;;;;;;;;;;;17.68;49.71;99411.53;5085438;28;998;-62
2023/08/06 05:26:27;;;;;;;;;;;;;;;17.68;49.60;99415.09;5088862;28;867;-61
2023/08/06 05:28:53;;;;;;;;;;;;;;;17.67;49.87;99413.50;5093229;28;2470;-61
2023/08/06 05:31:18;;;;;;;;;;;;;;;17.59;50.25;99412.28;5098915;28;1098;-63
2023/08/06 05:33:44;;;;;;;;;;;;;;;17.68;50.12;99414.28;5098798;28;1138;-62
2023/08/06 05:36:09;;;;;;;;;;;;;;;17.61;50.39;99404.56;5098852;28;1888;-62
2023/08/06 05:38:35;;;;;;;;;;;;;;;17.55;50.66;99405.78;5098310;28;1006;-62
2023/08/06 05:41:01;;;;;;;;;;;;;;;17.59;50.36;99392.25;5098415;28;1057;-62
2023/08/06 05:43:26;;;;;;;;;;;;;;;17.57;50.63;99399.97;5098283;28;1123;-63
2023/08/06 05:45:52;;;;;;;;;;;;;;;17.58;50.84;99405.16;5098484;28;1070;-63
2023/08/06 05:48:17;;;;;;;;;;;;;;;17.52;51.05;99402.88;5085975;28;1114;-64
2023/08/06 05:50:43;;;;;;;;;;;;;;;17.48;51.39;99396.38;5097096;28;1135;-62
2023/08/06 05:53:09;;;;;;;;;;;;;;;17.48;51.36;99399.94;5098566;28;1070;-62
2023/08/06 05:55:35;;;;;;;;;;;;;;;17.48;51.49;99399.94;5098331;28;1143;-62
2023/08/06 05:58:01;;;;;;;;;;;;;;;17.51;51.61;99393.81;5098309;28;1934;-62
2023/08/06 06:00:26;;;;;;;;;;;;;;;17.52;51.86;99380.91;5088185;28;2447;-61
2023/08/06 06:02:52;;;;;;;;;;;;;;;17.48;51.85;99382.66;5079988;28;1016;-61
2023/08/06 06:05:17;;;;;;;;;;;;;;;17.49;51.96;99387.00;5098373;28;1129;-61
2023/08/06 06:07:43;;;;;;;;;;;;;;;17.48;52.02;99380.69;5098011;28;1181;-61
2023/08/06 06:10:09;;;;;;;;;;;;;;;17.51;51.96;99371.03;5097934;28;1367;-61
2023/08/06 06:12:34;;;;;;;;;;;;;;;17.44;52.08;99383.25;5098218;28;1312;-62
2023/08/06 06:15:00;;;;;;;;;;;;;;;17.48;52.27;99383.44;5086773;28;1146;-61
2023/08/06 06:17:27;;;;;;;;;;;;;;;17.38;52.25;99387.25;5097711;28;1913;-61
2023/08/06 06:19:52;;;;;;;;;;;;;;;17.49;52.18;99390.56;5097936;28;1015;-61
2023/08/06 06:22:18;;;;;;;;;;;;;;;17.45;52.35;99386.81;5091952;28;1189;-62
2023/08/06 06:24:43;;;;;;;;;;;;;;;17.37;52.76;99380.13;5096074;28;1249;-60
2023/08/06 06:27:09;;;;;;;;;;;;;;;17.41;52.37;99386.63;5098083;28;1403;-60
2023/08/06 06:29:34;;;;;;;;;;;;;;;17.45;52.56;99390.38;5097462;28;2486;-59
2023/08/06 06:32:00;;;;;;;;;;;;;;;17.40;52.50;99386.94;5097418;28;1264;-60
2023/08/06 06:34:25;;;;;;;;;;;;;;;17.40;52.68;99396.03;5097782;28;1252;-60
2023/08/06 06:36:51;;;;;;;;;;;;;;;17.38;52.89;99395.50;5097186;28;1913;-61
2023/08/06 06:39:17;;;;;;;;;;;;;;;17.39;52.74;99391.63;5085282;28;1018;-60
2023/08/06 06:41:44;;;;;;;;;;;;;;;17.37;52.85;99388.38;5096149;28;1102;-60
2023/08/06 06:44:20;;;;;;;;;;;;;;;17.40;52.61;99392.44;5079495;28;1255;-55
2023/08/06 06:46:45;;;;;;;;;;;;;;;17.37;52.79;99376.59;5084295;28;1000;-59
2023/08/06 06:49:11;;;;;;;;;;;;;;;17.38;53.10;99379.03;5097249;28;1151;-60
2023/08/06 06:51:36;;;;;;;;;;;;;;;17.40;53.06;99381.44;5097288;28;1083;-60
2023/08/06 06:54:02;;;;;;;;;;;;;;;17.38;52.84;99390.00;5096667;28;1234;-59
2023/08/06 06:56:28;;;;;;;;;;;;;;;17.35;53.24;99385.16;5097020;28;1914;-60
2023/08/06 06:58:53;;;;;;;;;;;;;;;17.35;53.07;99385.16;5091785;28;2548;-60
2023/08/06 07:01:19;;;;;;;;;;;;;;;17.37;52.97;99377.38;5095219;28;1328;-59
2023/08/06 07:03:44;;;;;;;;;;;;;;;17.36;53.31;99378.53;5095004;28;1045;-60
2023/08/06 07:06:10;;;;;;;;;;;;;;;17.37;53.29;99382.88;5096503;28;1318;-60
2023/08/06 07:08:36;;;;;;;;;;;;;;;17.40;53.13;99387.78;5083601;28;1335;-60
2023/08/06 07:11:02;;;;;;;;;;;;;;;17.33;53.08;99381.09;5096936;28;1292;-60
2023/08/06 07:13:28;;;;;;;;;;;;;;;17.33;53.44;99386.56;5097021;28;1296;-60
2023/08/06 07:15:54;;;;;;;;;;;;;;;17.40;53.23;99376.78;5096266;28;1015;-60
2023/08/06 07:18:20;;;;;;;;;;;;;;;17.41;53.30;99372.88;5096528;28;1004;-60
2023/08/06 07:20:49;;;;;;;;;;;;;;;17.38;53.10;99381.75;5095683;28;1101;-61
2023/08/06 07:23:14;;;;;;;;;;;;;;;17.36;53.33;99381.28;5096543;28;1477;-59
2023/08/06 07:25:40;;;;;;;;;;;;;;;17.35;53.21;99387.88;5096532;28;1030;-60
2023/08/06 07:28:06;;;;;;;;;;;;;;;17.38;53.47;99381.75;5095909;28;905;-61
2023/08/06 07:30:32;;;;;;;;;;;;;;;17.31;53.63;99370.41;5096425;28;2308;-61
2023/08/06 07:32:57;;;;;;;;;;;;;;;17.34;53.31;99367.03;5096637;28;1189;-61
2023/08/06 07:35:23;;;;;;;;;;;;;;;17.32;53.48;99373.94;5096440;28;1157;-61
2023/08/06 07:37:48;;;;;;;;;;;;;;;17.30;53.35;99379.75;5096622;28;1882;-60
2023/08/06 07:40:14;;;;;;;;;;;;;;;17.35;53.38;99387.88;5095497;28;1144;-61
2023/08/06 07:42:40;;;;;;;;;;;;;;;17.36;53.51;99391.44;5096593;28;994;-59
2023/08/06 07:45:06;;;;;;;;;;;;;;;17.36;53.60;99385.94;5095729;28;1034;-59
2023/08/06 07:47:32;;;;;;;;;;;;;;;17.27;53.89;99391.38;5096187;28;1085;-59
2023/08/06 07:49:58;;;;;;;;;;;;;;;17.35;53.62;99385.16;5094828;28;1302;-59
2023/08/06 07:52:23;;;;;;;;;;;;;;;17.35;53.71;99379.66;5095577;28;845;-60
2023/08/06 07:54:49;;;;;;;;;;;;;;;17.36;53.57;99381.28;5096392;28;1221;-60
2023/08/06 07:57:15;;;;;;;;;;;;;;;17.37;53.72;99380.13;5096149;28;1894;-60
2023/08/06 07:59:40;;;;;;;;;;;;;;;17.30;53.73;99381.72;5095781;28;2254;-60
2023/08/06 08:02:06;;;;;;;;;;;;;;;17.35;53.48;99367.81;5095496;28;1046;-60
2023/08/06 08:04:31;;;;;;;;;;;;;;;17.30;53.91;99379.75;5091918;28;910;-60
2023/08/06 08:06:57;;;;;;;;;;;;;;;17.31;53.88;99389.63;5095806;28;1232;-60
2023/08/06 08:09:23;;;;;;;;;;;;;;;17.34;53.76;99391.75;5095746;28;1086;-60
2023/08/06 08:11:48;;;;;;;;;;;;;;;17.31;53.65;99389.63;5082357;28;1193;-60
2023/08/06 08:14:14;;;;;;;;;;;;;;;17.36;53.74;99396.94;5095509;28;1058;-60
2023/08/06 08:16:39;;;;;;;;;;;;;;;17.35;53.76;99403.53;5083959;28;2008;-61
2023/08/06 08:19:05;;;;;;;;;;;;;;;17.33;53.92;99387.38;5095538;28;1088;-60
2023/08/06 08:21:31;;;;;;;;;;;;;;;17.34;53.80;99386.25;5095781;28;1315;-60
2023/08/06 08:23:58;;;;;;;;;;;;;;;17.32;54.01;99391.28;5095293;28;1402;-60
2023/08/06 08:26:24;;;;;;;;;;;;;;;17.33;53.91;99395.63;5095632;28;1314;-60
2023/08/06 08:28:50;;;;;;;;;;;;;;;17.33;53.92;99387.38;5078760;28;1820;-61
2023/08/06 08:31:16;;;;;;;;;;;;;;;17.33;54.03;99392.88;5088659;28;1391;-61
2023/08/06 08:33:42;;;;;;;;;;;;;;;17.32;53.94;99377.53;5095205;28;1354;-61
2023/08/06 08:36:09;;;;;;;;;;;;;;;17.33;53.82;99373.63;5095235;28;1897;-61
2023/08/06 08:38:35;;;;;;;;;;;;;;;17.39;53.87;99366.09;5095967;28;1378;-61
2023/08/06 08:41:00;;;;;;;;;;;;;;;17.30;54.04;99357.78;5091111;28;1208;-60
2023/08/06 08:43:26;;;;;;;;;;;;;;;17.33;54.13;99348.91;5077474;28;1094;-60
2023/08/06 08:45:52;;;;;;;;;;;;;;;17.32;54.03;99351.97;5095285;28;1124;-59
2023/08/06 08:48:19;;;;;;;;;;;;;;;17.39;53.92;99352.34;5097953;28;1019;-60
2023/08/06 08:50:45;;;;;;;;;;;;;;;17.31;54.13;99361.38;5099285;28;1102;-60
2023/08/06 08:53:10;;;;;;;;;;;;;;;17.34;53.94;99364.28;5099046;28;867;-62
2023/08/06 08:55:37;;;;;;;;;;;;;;;17.32;53.91;99358.31;5081529;28;1023;-60
2023/08/06 08:58:02;;;;;;;;;;;;;;;17.36;54.14;99353.81;5099096;28;1918;-60
2023/08/06 09:00:28;;;;;;;;;;;;;;;17.34;54.13;99350.53;5098913;28;2443;-60
2023/08/06 09:02:53;;;;;;;;;;;;;;;17.34;54.17;99347.78;5080049;28;1090;-60
2023/08/06 09:05:19;;;;;;;;;;;;;;;17.35;54.13;99352.19;5098278;28;932;-62
2023/08/06 09:07:45;;;;;;;;;;;;;;;17.36;54.05;99348.31;5081456;28;1201;-59
2023/08/06 09:10:13;;;;;;;;;;;;;;;17.36;54.05;99352.97;5098736;28;1193;-61
2023/08/06 09:12:39;;;;;;;;;;;;;;;17.27;54.15;99350.97;5099562;28;1132;-60
2023/08/06 09:15:05;;;;;;;;;;;;;;;17.34;54.02;99347.78;5080898;28;1015;-60
2023/08/06 09:17:30;;;;;;;;;;;;;;;17.31;54.07;99344.88;5098820;28;1918;-61
2023/08/06 09:19:56;;;;;;;;;;;;;;;17.32;53.94;99336.31;5099518;28;1091;-60
2023/08/06 09:22:22;;;;;;;;;;;;;;;17.36;53.96;99322.75;5080723;28;1117;-60
2023/08/06 09:24:47;;;;;;;;;;;;;;;17.34;53.81;99316.78;5099449;28;1078;-61
2023/08/06 09:27:16;;;;;;;;;;;;;;;17.31;54.12;99318.22;5098411;28;1066;-59
2023/08/06 09:29:42;;;;;;;;;;;;;;;17.36;54.03;99309.00;5091492;28;2409;-60
2023/08/06 09:32:08;;;;;;;;;;;;;;;17.40;53.87;99312.75;5099661;28;1177;-61
2023/08/06 09:34:34;;;;;;;;;;;;;;;17.34;54.12;99312.06;5098942;28;1102;-61
2023/08/06 09:36:59;;;;;;;;;;;;;;;17.39;53.93;99309.22;5099331;28;1914;-61
2023/08/06 09:39:26;;;;;;;;;;;;;;;17.31;54.17;99307.22;5098006;28;1027;-59
2023/08/06 09:41:55;;;;;;;;;;;;;;;17.31;54.16;99306.41;5098724;28;1030;-60
2023/08/06 09:44:24;;;;;;;;;;;;;;;17.34;53.84;99309.34;5098621;28;1090;-60
2023/08/06 09:46:50;;;;;;;;;;;;;;;17.36;54.07;99306.25;5098828;28;1197;-59
2023/08/06 09:49:18;;;;;;;;;;;;;;;17.40;54.08;99301.75;5098159;28;1120;-61
2023/08/06 09:51:44;;;;;;;;;;;;;;;17.36;53.90;99301.59;5098139;28;1157;-60
2023/08/06 09:54:12;;;;;;;;;;;;;;;17.37;54.29;99296.91;5097827;28;1083;-59
2023/08/06 09:56:38;;;;;;;;;;;;;;;17.35;54.09;99288.16;5080310;28;1980;-59
2023/08/06 09:59:06;;;;;;;;;;;;;;;17.38;54.09;99291.09;5090325;28;2251;-59
2023/08/06 10:01:33;;;;;;;;;;;;;;;17.37;54.22;99288.66;5095148;28;1142;-61
2023/08/06 10:03:59;;;;;;;;;;;;;;;17.40;54.37;99277.03;5098109;28;1149;-60
2023/08/06 10:06:24;;;;;;;;;;;;;;;17.40;54.28;99282.53;5098035;28;1209;-61
2023/08/06 10:08:50;;;;;;;;;;;;;;;17.40;54.51;99288.03;5080471;28;1106;-60
2023/08/06 10:11:15;;;;;;;;;;;;;;;17.42;54.37;99283.84;5097856;28;1030;-61
2023/08/06 10:13:41;;;;;;;;;;;;;;;17.44;54.22;99287.06;5098247;28;1023;-60
2023/08/06 10:16:06;;;;;;;;;;;;;;;17.42;54.04;99278.34;5080105;28;1914;-61
2023/08/06 10:18:32;;;;;;;;;;;;;;;17.51;53.92;99278.38;5097910;28;1062;-61
2023/08/06 10:20:59;;;;;;;;;;;;;;;17.45;54.08;99269.47;5097715;28;1051;-61
2023/08/06 10:23:35;;;;;;;;;;;;;;;17.44;54.19;99264.28;5097820;28;950;-61
2023/08/06 10:26:00;;;;;;;;;;;;;;;17.46;54.13;99262.06;5097551;28;1086;-60
2023/08/06 10:28:52;;;;;;;;;;;;;;;17.43;54.05;99258.00;5096134;28;2362;-61
2023/08/06 10:31:18;;;;;;;;;;;;;;;17.39;54.35;99246.00;5084465;28;1311;-62
2023/08/06 10:33:44;;;;;;;;;;;;;;;17.43;54.30;99244.25;5097199;28;1136;-60
2023/08/06 10:36:10;;;;;;;;;;;;;;;17.45;54.15;99244.72;5097702;28;1976;-60
2023/08/06 10:38:37;;;;;;;;;;;;;;;17.49;54.21;99239.44;5097836;28;1066;-60
2023/08/06 10:41:03;;;;;;;;;;;;;;;17.45;54.36;99233.75;5077027;28;1198;-61
2023/08/06 10:43:35;;;;;;;;;;;;;;;17.44;54.30;99225.81;5078985;28;1055;-62
2023/08/06 10:46:01;;;;;;;;;;;;;;;17.49;54.54;99230.34;5097686;28;1126;-61
2023/08/06 10:48:34;;;;;;;;;;;;;;;17.43;54.61;99227.75;5097138;28;1391;-61
2023/08/06 10:51:00;;;;;;;;;;;;;;;17.50;54.41;99229.22;5097427;28;1022;-62
2023/08/06 10:53:25;;;;;;;;;;;;;;;17.50;54.55;99235.56;5096560;28;978;-60
2023/08/06 10:55:51;;;;;;;;;;;;;;;17.43;54.59;99222.28;5097368;28;1018;-61
2023/08/06 10:58:17;;;;;;;;;;;;;;;17.47;54.37;99227.13;5097374;28;1917;-60
2023/08/06 11:00:42;;;;;;;;;;;;;;;17.46;54.53;99231.81;5087059;28;2681;-60
2023/08/06 11:03:08;;;;;;;;;;;;;;;17.45;54.59;99220.00;5097129;28;1118;-60
2023/08/06 11:05:33;;;;;;;;;;;;;;;17.48;54.67;99226.00;5078979;28;917;-61
2023/08/06 11:07:59;;;;;;;;;;;;;;;17.44;54.77;99223.06;5079042;28;1127;-61
2023/08/06 11:10:25;;;;;;;;;;;;;;;17.45;54.57;99219.19;5096269;28;1035;-60
2023/08/06 11:12:50;;;;;;;;;;;;;;;17.45;54.60;99214.50;5097192;28;1082;-61
2023/08/06 11:15:16;;;;;;;;;;;;;;;17.53;54.54;99198.34;5078519;28;1023;-56
2023/08/06 11:17:42;;;;;;;;;;;;;;;17.53;54.25;99193.69;5096578;28;1909;-61
2023/08/06 11:20:07;;;;;;;;;;;;;;;17.52;54.34;99207.75;5096887;28;995;-60
2023/08/06 11:22:33;;;;;;;;;;;;;;;17.54;54.64;99214.53;5096858;28;1122;-60
2023/08/06 11:25:00;;;;;;;;;;;;;;;17.48;54.72;99220.50;5096347;28;1018;-60
2023/08/06 11:27:27;;;;;;;;;;;;;;;17.51;54.53;99217.13;5096500;28;1065;-56
2023/08/06 11:29:52;;;;;;;;;;;;;;;17.53;54.54;99223.91;5074939;28;2397;-56
2023/08/06 11:32:18;;;;;;;;;;;;;;;17.49;54.78;99209.19;5096523;28;931;-57
2023/08/06 11:34:43;;;;;;;;;;;;;;;17.51;54.64;99184.16;5095748;28;1041;-56
2023/08/06 11:37:10;;;;;;;;;;;;;;;17.50;54.67;99150.38;5096798;28;1910;-57
2023/08/06 11:39:36;;;;;;;;;;;;;;;17.49;54.80;99159.72;5086218;28;1087;-57
2023/08/06 11:42:05;;;;;;;;;;;;;;;17.55;54.43;99176.88;5092959;28;1081;-57
2023/08/06 11:44:34;;;;;;;;;;;;;;;17.54;54.54;99200.00;5096444;28;1039;-57
2023/08/06 11:47:02;;;;;;;;;;;;;;;17.50;54.71;99210.00;5096636;28;1026;-57
2023/08/06 11:49:38;;;;;;;;;;;;;;;17.49;54.63;99219.34;5096238;28;1626;-57
2023/08/06 11:52:23;;;;;;;;;;;;;;;17.47;54.85;99233.41;5082216;28;1050;-57
2023/08/06 11:55:02;;;;;;;;;;;;;;;17.47;54.78;99271.88;5092839;28;1261;-57
2023/08/06 11:57:37;;;;;;;;;;;;;;;17.46;54.64;99385.72;5096177;28;1918;-58
2023/08/06 12:00:10;;;;;;;;;;;;;;;17.47;54.75;99446.97;5096095;28;2409;-57
2023/08/06 12:02:41;;;;;;;;;;;;;;;17.44;54.40;99434.66;5095786;28;1054;-57
2023/08/06 12:05:11;;;;;;;;;;;;;;;17.37;54.49;99404.06;5095332;28;1113;-59
2023/08/06 12:07:37;;;;;;;;;;;;;;;17.38;54.35;99428.47;5095907;28;1158;-59
2023/08/06 12:10:03;;;;;;;;;;;;;;;17.35;54.09;99423.59;5077802;28;1331;-60
2023/08/06 12:12:29;;;;;;;;;;;;;;;17.31;54.26;99414.38;5096133;28;1323;-59
2023/08/06 12:14:54;;;;;;;;;;;;;;;17.31;53.95;99399.81;5095640;28;1292;-60
2023/08/06 12:17:20;;;;;;;;;;;;;;;17.28;54.22;99384.78;5088139;28;1972;-59
2023/08/06 12:19:47;;;;;;;;;;;;;;;17.29;53.98;99353.41;5095514;28;1030;-59
2023/08/06 12:22:13;;;;;;;;;;;;;;;17.30;53.70;99335.00;5094865;28;1058;-59
2023/08/06 12:24:40;;;;;;;;;;;;;;;17.19;54.02;99353.66;5089168;28;1059;-53
2023/08/06 12:27:05;;;;;;;;;;;;;;;17.20;53.79;99347.06;5089026;28;1055;-52
2023/08/06 12:29:31;;;;;;;;;;;;;;;17.18;54.01;99365.78;5093462;28;2630;-54
2023/08/06 12:31:57;;;;;;;;;;;;;;;17.21;53.88;99384.41;5095623;28;1138;-55
2023/08/06 12:34:22;;;;;;;;;;;;;;;17.19;53.57;99386.63;5095597;28;1200;-51
2023/08/06 12:36:48;;;;;;;;;;;;;;;17.13;53.78;99363.16;5095681;28;2074;-54
2023/08/06 12:39:13;;;;;;;;;;;;;;;17.20;53.44;99366.28;5095710;28;1054;-53
2023/08/06 12:41:39;;;;;;;;;;;;;;;17.13;53.82;99357.69;5095373;28;891;-54
2023/08/06 12:44:05;;;;;;;;;;;;;;;17.14;53.61;99329.06;5095188;28;1042;-54
2023/08/06 12:46:31;;;;;;;;;;;;;;;17.14;53.51;99337.31;5095559;28;1039;-55
2023/08/06 12:48:57;;;;;;;;;;;;;;;17.17;53.58;99353.19;5095406;28;1117;-54
2023/08/06 12:51:23;;;;;;;;;;;;;;;17.14;53.43;99362.03;5095226;28;1042;-56
2023/08/06 12:53:49;;;;;;;;;;;;;;;17.12;53.40;99356.84;5094926;28;1105;-55